createdAt,value
2019-04-14T00:01:21.675Z,51.40
2019-04-14T00:03:52.802Z,51.30
2019-04-14T00:06:22.533Z,51.30
2019-04-14T00:08:52.276Z,51.20
2019-04-14T00:11:21.765Z,51.50
2019-04-14T00:13:52.351Z,51.10
2019-04-14T00:16:22.896Z,51.30
2019-04-14T00:18:55.546Z,51.30
2019-04-14T00:21:26.005Z,51.50
2019-04-14T00:23:58.859Z,51.50
2019-04-14T00:26:36.207Z,51.50
2019-04-14T00:29:06.789Z,51.80
2019-04-14T00:31:39.114Z,51.70
2019-04-14T00:34:25.098Z,51.60
2019-04-14T00:37:01.994Z,51.50
2019-04-14T00:39:33.613Z,51.60
2019-04-14T00:42:16.971Z,51.80
2019-04-14T00:44:51.880Z,51.80
2019-04-14T00:47:49.251Z,52.00
2019-04-14T00:50:10.150Z,52.10
2019-04-14T00:52:48.037Z,51.80
2019-04-14T00:55:18.416Z,51.90
2019-04-14T00:57:51.504Z,51.90
2019-04-14T01:00:21.950Z,52.10
2019-04-14T01:02:57.963Z,52.10
2019-04-14T01:05:30.243Z,52.10
2019-04-14T01:07:58.795Z,51.90
2019-04-14T01:10:28.276Z,52.00
2019-04-14T01:12:58.188Z,51.90
2019-04-14T01:15:31.157Z,52.40
2019-04-14T01:18:01.519Z,52.30
2019-04-14T01:20:32.373Z,52.20
2019-04-14T01:23:02.660Z,52.10
2019-04-14T01:25:34.570Z,52.50
2019-04-14T01:28:04.682Z,52.50
2019-04-14T01:30:35.115Z,52.40
2019-04-14T01:33:05.431Z,52.60
2019-04-14T01:35:37.889Z,52.40
2019-04-14T01:38:08.281Z,52.10
2019-04-14T01:40:38.694Z,52.60
2019-04-14T01:43:08.183Z,52.60
2019-04-14T01:45:40.261Z,52.50
2019-04-14T01:48:11.204Z,52.70
2019-04-14T01:50:51.595Z,52.70
2019-04-14T01:53:32.024Z,52.60
2019-04-14T01:56:04.046Z,52.70
2019-04-14T01:58:36.105Z,53.00
2019-04-14T02:01:10.513Z,53.00
2019-04-14T02:03:40.981Z,52.60
2019-04-14T02:06:11.450Z,52.80
2019-04-14T02:08:43.690Z,52.80
2019-04-14T02:11:13.700Z,52.70
2019-04-14T02:13:44.249Z,52.80
2019-04-14T02:16:26.005Z,52.80
2019-04-14T02:18:47.127Z,52.80
2019-04-14T02:21:17.567Z,52.90
2019-04-14T02:23:47.545Z,53.00
2019-04-14T02:26:18.241Z,53.10
2019-04-14T02:28:48.255Z,53.00
2019-04-14T02:31:38.352Z,52.90
2019-04-14T02:34:15.580Z,53.20
2019-04-14T02:39:20.631Z,53.10
2019-04-14T02:42:00.870Z,53.30
2019-04-14T02:47:15.023Z,53.40
2019-04-14T02:49:28.663Z,53.40
2019-04-14T02:51:58.534Z,53.30
2019-04-14T02:54:36.927Z,53.30
2019-04-14T02:57:06.782Z,53.30
2019-04-14T02:59:32.057Z,53.40
2019-04-14T03:02:20.671Z,53.40
2019-04-14T03:07:10.310Z,53.80
2019-04-14T03:12:01.419Z,53.90
2019-04-14T03:14:43.598Z,53.90
2019-04-14T03:17:25.375Z,54.10
2019-04-14T03:20:07.143Z,54.20
2019-04-14T03:22:46.490Z,54.10
2019-04-14T03:25:17.474Z,54.20
2019-04-14T03:27:58.495Z,54.30
2019-04-14T03:30:57.653Z,54.30
2019-04-14T03:38:21.929Z,54.00
2019-04-14T03:40:44.607Z,54.30
2019-04-14T03:43:18.420Z,54.50
2019-04-14T03:50:45.970Z,55.00
2019-04-14T03:53:27.711Z,55.10
2019-04-14T03:55:55.545Z,55.00
2019-04-14T03:58:20.662Z,55.10
2019-04-14T04:00:51.342Z,55.20
2019-04-14T04:03:23.827Z,55.00
2019-04-14T04:05:56.415Z,55.20
2019-04-14T04:08:26.839Z,55.40
2019-04-14T04:10:59.812Z,55.40
2019-04-14T04:13:30.236Z,55.50
2019-04-14T04:16:18.376Z,55.50
2019-04-14T04:18:57.975Z,55.60
2019-04-14T04:21:20.715Z,55.70
2019-04-14T04:23:51.817Z,55.80
2019-04-14T04:26:32.205Z,55.70
2019-04-14T04:29:06.992Z,55.90
2019-04-14T04:31:38.109Z,56.00
2019-04-14T04:34:16.291Z,55.80
2019-04-14T04:36:55.975Z,55.80
2019-04-14T04:39:30.219Z,56.00
2019-04-14T04:42:04.835Z,56.10
2019-04-14T04:44:35.620Z,56.00
2019-04-14T04:47:05.662Z,56.00
2019-04-14T04:49:36.167Z,56.20
2019-04-14T04:52:09.935Z,56.20
2019-04-14T04:54:40.475Z,56.10
2019-04-14T04:57:11.352Z,56.00
2019-04-14T04:59:40.989Z,56.00
2019-04-14T05:02:15.536Z,55.80
2019-04-14T05:04:45.981Z,55.70
2019-04-14T05:07:16.553Z,55.80
2019-04-14T05:09:51.209Z,55.80
2019-04-14T05:12:41.310Z,55.60
2019-04-14T05:15:16.902Z,55.60
2019-04-14T05:17:48.152Z,55.50
2019-04-14T05:20:20.305Z,55.40
2019-04-14T05:22:50.839Z,55.40
2019-04-14T05:25:23.297Z,55.30
2019-04-14T05:27:58.057Z,55.20
2019-04-14T05:30:26.393Z,55.00
2019-04-14T05:33:00.917Z,55.00
2019-04-14T05:35:34.371Z,54.90
2019-04-14T05:38:04.068Z,54.80
2019-04-14T05:40:36.340Z,54.90
2019-04-14T05:43:06.990Z,54.40
2019-04-14T05:45:37.329Z,54.40
2019-04-14T05:48:09.740Z,54.10
2019-04-14T05:50:42.217Z,54.00
2019-04-14T05:53:11.739Z,54.30
2019-04-14T05:55:41.655Z,54.10
2019-04-14T05:58:12.125Z,53.50
2019-04-14T06:00:43.722Z,53.40
2019-04-14T06:03:14.482Z,53.20
2019-04-14T06:05:47.154Z,53.20
2019-04-14T06:08:19.371Z,53.50
2019-04-14T06:10:48.869Z,53.40
2019-04-14T06:13:18.331Z,52.70
2019-04-14T06:15:47.789Z,52.90
2019-04-14T06:18:17.250Z,53.40
2019-04-14T06:20:46.666Z,52.80
2019-04-14T06:23:17.853Z,52.40
2019-04-14T06:25:49.895Z,52.40
2019-04-14T06:28:20.868Z,52.10
2019-04-14T06:30:51.998Z,51.90
2019-04-14T06:33:23.169Z,51.60
2019-04-14T06:36:05.427Z,50.90
2019-04-14T06:38:53.081Z,50.50
2019-04-14T06:41:31.014Z,50.90
2019-04-14T06:44:00.456Z,50.70
2019-04-14T06:46:29.966Z,50.30
2019-04-14T06:48:59.431Z,49.70
2019-04-14T06:51:28.879Z,49.10
2019-04-14T06:53:59.002Z,49.00
2019-04-14T06:56:30.066Z,48.90
2019-04-14T06:58:59.518Z,48.50
2019-04-14T07:01:29.034Z,48.10
2019-04-14T07:03:58.526Z,47.50
2019-04-14T07:06:28.071Z,47.30
2019-04-14T07:08:57.516Z,47.40
2019-04-14T07:11:26.960Z,47.50
2019-04-14T07:13:56.571Z,47.10
2019-04-14T07:16:26.018Z,47.20
2019-04-14T07:18:55.500Z,47.10
2019-04-14T07:21:24.976Z,47.00
2019-04-14T07:23:54.430Z,46.50
2019-04-14T07:26:23.936Z,46.30
2019-04-14T07:28:56.986Z,45.50
2019-04-14T07:31:26.318Z,45.60
2019-04-14T07:34:00.360Z,45.50
2019-04-14T07:36:31.440Z,45.50
2019-04-14T07:39:02.576Z,45.10
2019-04-14T07:41:37.808Z,45.00
2019-04-14T07:44:11.480Z,44.20
2019-04-14T07:46:42.588Z,44.30
2019-04-14T07:49:29.579Z,44.00
2019-04-14T07:52:15.932Z,43.50
2019-04-14T07:54:47.028Z,43.40
2019-04-14T07:57:23.970Z,43.20
2019-04-14T07:59:55.106Z,43.60
2019-04-14T08:02:34.950Z,43.80
2019-04-14T08:05:15.685Z,43.10
2019-04-14T08:07:45.805Z,42.80
2019-04-14T08:10:15.391Z,43.00
2019-04-14T08:12:44.842Z,42.50
2019-04-14T08:15:14.447Z,42.30
2019-04-14T08:17:43.880Z,42.10
2019-04-14T08:20:13.514Z,41.80
2019-04-14T08:22:43.251Z,40.90
2019-04-14T08:25:12.869Z,42.50
2019-04-14T08:27:42.327Z,42.20
2019-04-14T08:30:12.056Z,42.60
2019-04-14T08:32:43.086Z,41.60
2019-04-14T08:35:12.706Z,41.20
2019-04-14T08:37:42.211Z,40.00
2019-04-14T08:40:12.831Z,40.30
2019-04-14T08:43:00.159Z,40.50
2019-04-14T08:45:42.769Z,41.00
2019-04-14T08:48:19.923Z,39.70
2019-04-14T08:50:51.270Z,38.30
2019-04-14T08:53:22.498Z,37.90
2019-04-14T08:56:09.875Z,37.30
2019-04-14T08:58:46.994Z,37.30
2019-04-14T09:01:18.510Z,36.80
2019-04-14T09:03:49.627Z,36.40
2019-04-14T09:06:20.703Z,36.60
2019-04-14T09:09:20.400Z,36.80
2019-04-14T09:11:54.271Z,36.90
2019-04-14T09:14:23.733Z,36.40
2019-04-14T09:16:53.158Z,37.20
2019-04-14T09:19:22.771Z,36.00
2019-04-14T09:21:52.203Z,36.80
2019-04-14T09:24:21.646Z,36.00
2019-04-14T09:26:51.196Z,36.30
2019-04-14T09:29:20.639Z,36.30
2019-04-14T09:31:51.651Z,36.40
2019-04-14T09:34:22.722Z,36.20
2019-04-14T09:36:52.166Z,36.00
2019-04-14T09:39:21.607Z,35.60
2019-04-14T09:41:51.178Z,35.30
2019-04-14T09:44:20.624Z,34.40
2019-04-14T09:46:50.083Z,34.20
2019-04-14T09:49:19.588Z,35.10
2019-04-14T09:51:49.059Z,35.40
2019-04-14T09:54:18.484Z,35.00
2019-04-14T09:56:47.931Z,36.90
2019-04-14T09:59:17.462Z,39.30
2019-04-14T10:01:46.950Z,35.50
2019-04-14T10:04:16.371Z,37.60
2019-04-14T10:06:45.837Z,35.50
2019-04-14T10:09:15.524Z,36.50
2019-04-14T10:11:48.865Z,33.80
2019-04-14T10:14:16.083Z,35.30
2019-04-14T10:16:45.542Z,35.30
2019-04-14T10:19:15.098Z,35.30
2019-04-14T10:21:44.533Z,35.70
2019-04-14T10:24:14.032Z,35.60
2019-04-14T10:26:43.563Z,34.40
2019-04-14T10:29:13.790Z,35.10
2019-04-14T10:31:43.601Z,33.90
2019-04-14T10:34:13.043Z,33.70
2019-04-14T10:36:42.551Z,34.10
2019-04-14T10:39:12.044Z,33.10
2019-04-14T10:41:41.612Z,33.10
2019-04-14T10:44:11.103Z,33.50
2019-04-14T10:46:40.620Z,33.60
2019-04-14T10:49:11.057Z,32.50
2019-04-14T10:51:44.332Z,32.40
2019-04-14T10:54:14.406Z,32.20
2019-04-14T10:56:43.895Z,31.10
2019-04-14T10:59:14.956Z,32.10
2019-04-14T11:01:44.497Z,30.80
2019-04-14T11:04:15.087Z,31.70
2019-04-14T11:06:46.241Z,31.30
2019-04-14T11:09:15.945Z,30.90
2019-04-14T11:11:45.536Z,31.70
2019-04-14T11:14:15.060Z,34.30
2019-04-14T11:16:44.617Z,32.90
2019-04-14T11:19:14.081Z,31.40
2019-04-14T11:21:43.531Z,34.50
2019-04-14T11:24:13.035Z,30.60
2019-04-14T11:26:42.523Z,33.50
2019-04-14T11:29:12.017Z,31.90
2019-04-14T11:31:51.744Z,31.80
2019-04-14T11:34:22.867Z,32.90
2019-04-14T11:37:11.693Z,31.60
2019-04-14T11:39:42.539Z,30.60
2019-04-14T11:42:12.049Z,30.80
2019-04-14T11:44:41.553Z,30.60
2019-04-14T11:47:11.292Z,31.10
2019-04-14T11:49:40.744Z,31.10
2019-04-14T11:52:10.277Z,30.00
2019-04-14T11:54:59.587Z,31.90
2019-04-14T11:57:29.101Z,31.60
2019-04-14T12:00:03.174Z,30.60
2019-04-14T12:02:50.372Z,31.20
2019-04-14T12:05:21.546Z,32.20
2019-04-14T12:07:52.655Z,31.40
2019-04-14T12:10:23.313Z,30.20
2019-04-14T12:12:52.772Z,30.00
2019-04-14T12:15:22.222Z,32.90
2019-04-14T12:17:51.677Z,32.10
2019-04-14T12:20:21.405Z,30.90
2019-04-14T12:22:50.921Z,33.30
2019-04-14T12:25:20.410Z,31.20
2019-04-14T12:27:51.381Z,29.40
2019-04-14T12:30:22.395Z,29.30
2019-04-14T12:32:53.583Z,29.10
2019-04-14T12:35:23.143Z,28.90
2019-04-14T12:37:53.983Z,30.80
2019-04-14T12:40:25.287Z,28.60
2019-04-14T12:42:59.156Z,29.30
2019-04-14T12:45:45.375Z,28.00
2019-04-14T12:48:16.599Z,28.70
2019-04-14T12:50:47.791Z,28.90
2019-04-14T12:53:17.703Z,29.50
2019-04-14T12:55:47.143Z,29.80
2019-04-14T12:58:18.276Z,29.00
2019-04-14T13:00:49.363Z,28.00
2019-04-14T13:03:19.545Z,27.80
2019-04-14T13:05:49.029Z,27.00
2019-04-14T13:08:18.489Z,27.30
2019-04-14T13:10:47.978Z,27.60
2019-04-14T13:13:17.530Z,28.20
2019-04-14T13:15:47.103Z,28.00
2019-04-14T13:18:16.583Z,28.30
2019-04-14T13:20:46.106Z,29.00
2019-04-14T13:23:15.570Z,29.00
2019-04-14T13:25:45.024Z,29.50
2019-04-14T13:28:14.484Z,28.40
2019-04-14T13:30:45.790Z,30.00
2019-04-14T13:33:18.135Z,29.10
2019-04-14T13:35:47.624Z,29.10
2019-04-14T13:38:17.070Z,29.30
2019-04-14T13:40:46.679Z,29.00
2019-04-14T13:43:16.173Z,28.80
2019-04-14T13:45:46.327Z,29.10
2019-04-14T13:48:16.010Z,27.80
2019-04-14T13:50:45.621Z,28.60
2019-04-14T13:53:15.095Z,28.60
2019-04-14T13:55:45.716Z,29.10
2019-04-14T13:58:15.497Z,28.00
2019-04-14T14:00:45.011Z,28.10
2019-04-14T14:03:14.471Z,27.80
2019-04-14T14:05:44.010Z,27.70
2019-04-14T14:08:14.372Z,28.20
2019-04-14T14:10:43.931Z,28.40
2019-04-14T14:13:18.080Z,28.20
2019-04-14T14:15:50.013Z,27.60
2019-04-14T14:18:32.922Z,28.00
2019-04-14T14:21:08.261Z,27.70
2019-04-14T14:23:39.428Z,27.00
2019-04-14T14:26:10.626Z,28.00
2019-04-14T14:28:40.084Z,27.80
2019-04-14T14:31:09.552Z,27.40
2019-04-14T14:33:39.076Z,28.30
2019-04-14T14:36:08.578Z,28.10
2019-04-14T14:38:38.039Z,27.70
2019-04-14T14:41:09.284Z,28.50
2019-04-14T14:43:38.760Z,28.00
2019-04-14T14:46:25.827Z,27.60
2019-04-14T14:49:06.016Z,28.20
2019-04-14T14:51:45.952Z,27.90
2019-04-14T14:54:15.482Z,27.00
2019-04-14T14:56:45.015Z,26.90
2019-04-14T14:59:14.450Z,27.30
2019-04-14T15:01:44.056Z,27.30
2019-04-14T15:04:13.556Z,28.00
2019-04-14T15:06:43.126Z,28.10
2019-04-14T15:09:12.583Z,28.20
2019-04-14T15:11:42.093Z,28.90
2019-04-14T15:14:11.588Z,28.90
2019-04-14T15:16:41.149Z,28.80
2019-04-14T15:19:10.872Z,28.40
2019-04-14T15:21:40.290Z,29.30
2019-04-14T15:26:51.431Z,28.40
2019-04-14T15:29:21.726Z,28.60
2019-04-14T15:31:51.260Z,28.00
2019-04-14T15:34:20.788Z,27.60
2019-04-14T15:36:51.987Z,28.70
2019-04-14T15:39:21.437Z,28.50
2019-04-14T15:41:50.909Z,28.80
2019-04-14T15:44:20.495Z,28.40
2019-04-14T15:46:49.974Z,28.70
2019-04-14T15:49:19.486Z,28.80
2019-04-14T15:51:48.937Z,28.80
2019-04-14T15:54:18.398Z,29.20
2019-04-14T15:56:58.268Z,29.20
2019-04-14T15:59:29.741Z,29.00
2019-04-14T16:02:18.772Z,29.40
2019-04-14T16:04:52.907Z,29.00
2019-04-14T16:07:24.097Z,29.60
2019-04-14T16:09:58.329Z,29.10
2019-04-14T16:12:29.534Z,28.60
2019-04-14T16:15:06.435Z,28.70
2019-04-14T16:17:37.639Z,29.10
2019-04-14T16:20:09.770Z,28.80
2019-04-14T16:22:39.330Z,29.50
2019-04-14T16:25:09.227Z,28.40
2019-04-14T16:27:49.639Z,27.90
2019-04-14T16:30:26.647Z,27.40
2019-04-14T16:33:06.273Z,26.70
2019-04-14T16:35:37.475Z,26.30
2019-04-14T16:38:06.972Z,26.00
2019-04-14T16:40:37.801Z,25.50
2019-04-14T16:43:07.284Z,25.60
2019-04-14T16:45:37.819Z,25.90
2019-04-14T16:48:07.359Z,26.20
2019-04-14T16:50:36.855Z,26.90
2019-04-14T16:53:25.893Z,27.40
2019-04-14T16:55:59.539Z,27.80
2019-04-14T16:58:42.359Z,28.10
2019-04-14T17:01:13.434Z,28.30
2019-04-14T17:03:42.984Z,28.60
2019-04-14T17:06:12.407Z,28.60
2019-04-14T17:08:41.951Z,28.80
2019-04-14T17:11:11.472Z,28.90
2019-04-14T17:13:42.690Z,29.40
2019-04-14T17:16:30.028Z,29.70
2019-04-14T17:19:10.102Z,30.00
2019-04-14T17:21:43.984Z,30.60
2019-04-14T17:24:31.249Z,31.10
2019-04-14T17:27:05.072Z,31.20
2019-04-14T17:29:36.436Z,31.30
2019-04-14T17:32:23.347Z,31.80
2019-04-14T17:34:54.443Z,32.00
2019-04-14T17:37:41.923Z,32.10
2019-04-14T17:40:25.427Z,32.20
2019-04-14T17:42:56.498Z,32.40
2019-04-14T17:45:33.232Z,32.70
2019-04-14T17:48:07.095Z,33.10
2019-04-14T17:50:50.246Z,33.30
2019-04-14T17:53:21.432Z,33.50
2019-04-14T17:55:58.495Z,33.80
2019-04-14T17:58:29.619Z,34.00
2019-04-14T18:01:16.767Z,34.20
2019-04-14T18:03:48.964Z,34.30
2019-04-14T18:06:20.111Z,34.40
2019-04-14T18:09:00.267Z,34.40
2019-04-14T18:11:49.346Z,34.60
2019-04-14T18:14:36.163Z,34.80
2019-04-14T18:17:23.203Z,34.80
2019-04-14T18:20:12.045Z,35.70
2019-04-14T18:22:41.519Z,34.90
2019-04-14T18:25:11.120Z,35.00
2019-04-14T18:27:42.291Z,35.00
2019-04-14T18:30:15.985Z,35.10
2019-04-14T18:32:47.104Z,35.50
2019-04-14T18:35:18.199Z,35.40
2019-04-14T18:37:49.363Z,35.70
2019-04-14T18:40:29.356Z,35.70
2019-04-14T18:43:06.267Z,35.70
2019-04-14T18:45:42.711Z,36.00
2019-04-14T18:48:18.676Z,36.20
2019-04-14T18:51:01.707Z,36.20
2019-04-14T18:53:36.893Z,36.40
2019-04-14T18:56:13.435Z,36.40
2019-04-14T18:59:00.955Z,36.60
2019-04-14T19:01:32.031Z,36.70
2019-04-14T19:04:02.446Z,36.70
2019-04-14T19:06:32.297Z,36.90
2019-04-14T19:09:01.839Z,37.10
2019-04-14T19:11:40.478Z,37.50
2019-04-14T19:14:11.849Z,37.50
2019-04-14T19:16:42.895Z,37.70
2019-04-14T19:19:12.870Z,37.70
2019-04-14T19:21:45.239Z,38.00
2019-04-14T19:24:14.841Z,38.30
2019-04-14T19:26:44.313Z,38.60
2019-04-14T19:29:13.829Z,38.70
2019-04-14T19:31:43.379Z,39.00
2019-04-14T19:34:12.824Z,39.30
2019-04-14T19:36:42.281Z,39.50
2019-04-14T19:39:11.816Z,39.60
2019-04-14T19:41:41.375Z,40.00
2019-04-14T19:44:10.817Z,40.00
2019-04-14T19:46:41.300Z,40.20
2019-04-14T19:49:10.807Z,40.30
2019-04-14T19:51:40.313Z,40.60
2019-04-14T19:54:09.789Z,40.70
2019-04-14T19:56:39.247Z,40.80
2019-04-14T19:59:08.694Z,41.00
2019-04-14T20:01:38.199Z,41.20
2019-04-14T20:04:07.649Z,41.40
2019-04-14T20:06:37.080Z,41.70
2019-04-14T20:09:07.233Z,41.80
2019-04-14T20:11:37.511Z,42.00
2019-04-14T20:14:06.976Z,42.10
2019-04-14T20:16:40.701Z,42.40
2019-04-14T20:19:27.735Z,42.50
2019-04-14T20:22:10.826Z,42.80
2019-04-14T20:24:41.961Z,42.80
2019-04-14T20:27:29.173Z,42.90
2019-04-14T20:30:15.353Z,43.00
2019-04-14T20:32:45.732Z,43.10
2019-04-14T20:35:15.167Z,43.10
2019-04-14T20:37:44.689Z,43.40
2019-04-14T20:40:14.302Z,43.60
2019-04-14T20:42:43.767Z,43.60
2019-04-14T20:45:14.590Z,43.60
2019-04-14T20:47:44.042Z,44.40
2019-04-14T20:50:13.817Z,43.80
2019-04-14T20:52:43.366Z,44.00
2019-04-14T20:55:12.977Z,44.00
2019-04-14T20:57:43.599Z,44.10
2019-04-14T21:00:14.431Z,44.30
2019-04-14T21:03:01.816Z,44.40
2019-04-14T21:05:34.104Z,44.70
2019-04-14T21:08:17.175Z,44.70
2019-04-14T21:10:48.252Z,44.90
2019-04-14T21:13:22.020Z,44.90
2019-04-14T21:15:53.173Z,45.10
2019-04-14T21:18:24.195Z,45.20
2019-04-14T21:21:06.828Z,45.40
2019-04-14T21:23:40.772Z,45.60
2019-04-14T21:26:17.405Z,45.80
2019-04-14T21:28:51.452Z,46.10
2019-04-14T21:31:28.391Z,46.20
2019-04-14T21:34:15.710Z,46.20
2019-04-14T21:36:52.444Z,46.30
2019-04-14T21:39:40.670Z,46.40
2019-04-14T21:42:09.527Z,46.50
2019-04-14T21:44:38.978Z,46.60
2019-04-14T21:47:08.538Z,46.80
2019-04-14T21:49:37.993Z,46.90
2019-04-14T21:52:20.757Z,47.00
2019-04-14T21:54:50.211Z,47.20
2019-04-14T21:57:26.960Z,47.30
2019-04-14T22:00:14.210Z,47.40
2019-04-14T22:02:52.576Z,47.50
2019-04-14T22:05:26.583Z,47.70
2019-04-14T22:08:09.426Z,47.90
2019-04-14T22:10:40.611Z,47.90
2019-04-14T22:13:10.105Z,48.00
2019-04-14T22:15:39.618Z,48.00
2019-04-14T22:18:09.125Z,48.10
2019-04-14T22:20:38.580Z,48.20
2019-04-14T22:23:09.758Z,48.30
2019-04-14T22:25:39.190Z,48.50
2019-04-14T22:28:09.366Z,48.60
2019-04-14T22:30:38.940Z,48.80
2019-04-14T22:33:08.471Z,48.90
2019-04-14T22:35:37.914Z,49.00
2019-04-14T22:38:07.350Z,49.20
2019-04-14T22:40:36.939Z,49.30
2019-04-14T22:43:06.521Z,49.30
2019-04-14T22:45:35.954Z,49.50
2019-04-14T22:48:05.544Z,49.70
2019-04-14T22:50:35.082Z,49.60
2019-04-14T22:53:04.502Z,49.80
2019-04-14T22:55:33.958Z,49.80
2019-04-14T22:58:03.436Z,49.90
2019-04-14T23:00:37.284Z,50.00
2019-04-14T23:03:24.680Z,50.20
2019-04-14T23:05:55.888Z,50.40
2019-04-14T23:08:32.670Z,50.40
2019-04-14T23:11:09.706Z,50.80
2019-04-14T23:13:43.744Z,50.90
2019-04-14T23:16:20.803Z,50.90
2019-04-14T23:18:54.482Z,50.90
2019-04-14T23:21:41.550Z,51.10
2019-04-14T23:24:21.397Z,51.30
2019-04-14T23:26:52.637Z,51.40
2019-04-14T23:29:21.934Z,51.50
2019-04-14T23:31:51.294Z,51.50
2019-04-14T23:34:21.270Z,51.60
2019-04-14T23:36:50.703Z,51.80
2019-04-14T23:39:20.195Z,51.80
2019-04-14T23:41:49.697Z,51.90
2019-04-14T23:44:19.132Z,52.00
2019-04-14T23:46:48.609Z,52.10
2019-04-14T23:49:18.042Z,52.20
2019-04-14T23:51:47.603Z,52.30
2019-04-14T23:54:17.106Z,52.60
2019-04-14T23:56:46.588Z,52.60
2019-04-14T23:59:16.850Z,52.60
